Time;durP1;ratioP1;P1;durP2;ratioP2;P2;SDS_P1;SDS_P2;PMS_P1;PMS_P2;Temp;Humidity;BMP_temperature;BMP_pressure;BME280_temperature;BME280_humidity;BME280_pressure;Samples;Min_cycle;Max_cycle;Signal;HPM_P1;HPM_P2
2024/04/08 06:21:00;;;;;;;3.58;2.30;;;;;;;;;;10624818;28;19951;-86
2024/04/08 06:26:02;;;;;;;2.97;1.65;;;;;;;;;;10606253;28;20407;-84
2024/04/08 06:31:53;;;;;;;4.63;2.17;;;;;;;;;;10539776;28;20032;-84
2024/04/08 06:48:16;;;;;;;5.97;2.75;;;;;;;;;;10413090;28;20045;-85
2024/04/08 07:04:21;;;;;;;2.50;1.40;;;;;;;;;;10459288;28;20385;-85
2024/04/08 07:15:08;;;;;;;3.45;2.08;;;;;;;;;;10419233;22;20045;-80
2024/04/08 07:20:09;;;;;;;4.32;2.08;;;;;;;;;;10473084;28;20392;-81
2024/04/08 07:25:11;;;;;;;5.18;2.08;;;;;;;;;;10447703;28;20020;-80
2024/04/08 07:30:12;;;;;;;3.00;1.75;;;;;;;;;;10468164;28;20028;-81
2024/04/08 07:35:16;;;;;;;4.45;1.85;;;;;;;;;;10471511;28;20535;-79
2024/04/08 07:40:17;;;;;;;3.45;1.65;;;;;;;;;;10456281;28;20029;-79
2024/04/08 07:45:19;;;;;;;5.55;1.77;;;;;;;;;;10481626;28;20543;-81
2024/04/08 07:50:20;;;;;;;3.17;1.35;;;;;;;;;;10476989;28;20025;-79
2024/04/08 07:55:21;;;;;;;6.47;1.63;;;;;;;;;;10474885;28;20029;-81
2024/04/08 08:00:22;;;;;;;4.13;1.77;;;;;;;;;;10459624;28;20025;-79
2024/04/08 08:05:23;;;;;;;3.28;1.60;;;;;;;;;;10462657;28;20120;-79
2024/04/08 08:10:24;;;;;;;5.07;1.70;;;;;;;;;;10484514;28;20461;-80
2024/04/08 08:15:25;;;;;;;3.00;1.40;;;;;;;;;;10474359;28;20044;-79
2024/04/08 08:20:26;;;;;;;4.68;1.50;;;;;;;;;;10469367;28;20377;-80
2024/04/08 08:25:27;;;;;;;4.32;1.50;;;;;;;;;;10453415;28;20033;-81
2024/04/08 08:30:29;;;;;;;3.67;1.30;;;;;;;;;;10473015;28;20025;-80
2024/04/08 08:35:33;;;;;;;4.90;1.70;;;;;;;;;;10471841;28;20028;-80
2024/04/08 08:40:39;;;;;;;2.47;1.40;;;;;;;;;;10451850;28;20029;-80
2024/04/08 08:45:46;;;;;;;4.32;1.70;;;;;;;;;;10471457;28;20111;-81
2024/04/08 08:50:49;;;;;;;4.88;1.40;;;;;;;;;;10454063;28;20083;-81
2024/04/08 08:55:51;;;;;;;3.30;1.23;;;;;;;;;;10470341;28;20084;-81
2024/04/08 09:00:52;;;;;;;3.53;1.70;;;;;;;;;;10453191;28;20029;-80
2024/04/08 09:05:55;;;;;;;3.92;1.60;;;;;;;;;;10454011;28;20166;-80
2024/04/08 09:10:57;;;;;;;3.42;1.50;;;;;;;;;;10478117;28;20088;-79
2024/04/08 09:15:58;;;;;;;4.13;1.60;;;;;;;;;;10452243;28;20045;-79
2024/04/08 09:20:59;;;;;;;3.33;1.58;;;;;;;;;;10468078;28;20109;-80
2024/04/08 09:26:00;;;;;;;4.43;1.40;;;;;;;;;;10469126;28;20048;-79
2024/04/08 09:31:02;;;;;;;4.40;1.40;;;;;;;;;;10468422;28;20112;-80
2024/04/08 09:36:03;;;;;;;3.17;1.50;;;;;;;;;;10466468;28;20494;-79
2024/04/08 09:41:05;;;;;;;5.45;1.90;;;;;;;;;;10476856;28;20076;-80
2024/04/08 09:46:06;;;;;;;4.50;1.63;;;;;;;;;;10471510;28;20056;-80
2024/04/08 09:51:08;;;;;;;5.32;2.00;;;;;;;;;;10471665;28;20025;-81
2024/04/08 09:56:15;;;;;;;5.50;2.25;;;;;;;;;;10472485;28;20117;-82
2024/04/08 10:01:19;;;;;;;4.32;2.10;;;;;;;;;;10461393;28;20051;-80
2024/04/08 10:06:20;;;;;;;3.80;2.03;;;;;;;;;;10481432;28;20013;-82
2024/04/08 10:11:22;;;;;;;4.55;1.95;;;;;;;;;;10492752;28;20036;-84
2024/04/08 10:16:23;;;;;;;4.72;2.10;;;;;;;;;;10489265;28;20052;-80
2024/04/08 10:21:26;;;;;;;5.28;2.28;;;;;;;;;;10461877;28;20040;-81
2024/04/08 10:26:28;;;;;;;4.95;2.00;;;;;;;;;;10468980;28;20018;-81
2024/04/08 10:31:29;;;;;;;4.85;1.75;;;;;;;;;;10455693;28;20017;-80
2024/04/08 10:36:32;;;;;;;6.80;2.58;;;;;;;;;;10477207;28;20415;-80
2024/04/08 10:41:33;;;;;;;7.38;2.95;;;;;;;;;;10489368;28;20037;-80
2024/04/08 10:46:34;;;;;;;7.07;3.35;;;;;;;;;;10510285;28;20017;-80
2024/04/08 10:51:36;;;;;;;6.45;3.45;;;;;;;;;;10474273;28;20033;-79
2024/04/08 10:56:37;;;;;;;7.38;2.53;;;;;;;;;;10493975;28;20029;-81
2024/04/08 11:01:38;;;;;;;7.03;3.90;;;;;;;;;;10453277;28;20477;-81
2024/04/08 11:06:40;;;;;;;6.07;3.55;;;;;;;;;;10441684;28;20025;-81
2024/04/08 11:11:41;;;;;;;9.55;2.90;;;;;;;;;;10476404;28;20035;-82
2024/04/08 11:16:42;;;;;;;5.07;3.17;;;;;;;;;;10457194;28;20048;-82
2024/04/08 11:21:44;;;;;;;8.25;4.28;;;;;;;;;;10503394;28;20032;-81
2024/04/08 11:26:45;;;;;;;6.25;2.95;;;;;;;;;;10468004;28;20101;-81
2024/04/08 11:31:46;;;;;;;5.40;3.00;;;;;;;;;;10454884;28;20397;-80
2024/04/08 11:36:47;;;;;;;6.10;2.97;;;;;;;;;;10454366;28;20089;-81
2024/04/08 11:41:48;;;;;;;8.88;3.70;;;;;;;;;;10472567;28;20074;-82
2024/04/08 11:46:49;;;;;;;7.50;3.72;;;;;;;;;;10452305;28;20123;-81
2024/04/08 11:51:50;;;;;;;6.00;3.83;;;;;;;;;;10453720;28;20476;-81
2024/04/08 11:56:52;;;;;;;5.85;3.75;;;;;;;;;;10452670;28;20123;-81
2024/04/08 12:01:53;;;;;;;8.05;3.85;;;;;;;;;;10453695;28;20577;-81
2024/04/08 12:06:54;;;;;;;6.47;2.97;;;;;;;;;;10477049;28;20088;-81
2024/04/08 12:11:55;;;;;;;7.60;4.03;;;;;;;;;;10455557;28;20101;-82
2024/04/08 12:16:56;;;;;;;8.15;4.07;;;;;;;;;;10475461;28;20037;-82
2024/04/08 12:21:57;;;;;;;8.43;4.43;;;;;;;;;;10497036;28;20021;-82
2024/04/08 12:26:58;;;;;;;5.97;3.28;;;;;;;;;;10469707;28;20028;-81
2024/04/08 12:31:59;;;;;;;6.38;4.35;;;;;;;;;;10459756;28;20032;-82
2024/04/08 12:37:01;;;;;;;10.60;4.95;;;;;;;;;;10496237;28;20035;-82
2024/04/08 12:42:02;;;;;;;6.28;3.58;;;;;;;;;;10477056;28;20109;-82
2024/04/08 12:47:03;;;;;;;6.88;3.45;;;;;;;;;;10457515;28;20045;-83
2024/04/08 12:52:04;;;;;;;5.35;3.15;;;;;;;;;;10456666;28;20120;-82
2024/04/08 12:57:05;;;;;;;6.78;3.90;;;;;;;;;;10486991;28;20089;-81
2024/04/08 13:02:06;;;;;;;7.65;3.15;;;;;;;;;;10499239;28;20021;-82
2024/04/08 13:07:08;;;;;;;6.55;3.80;;;;;;;;;;10488868;28;20021;-82
2024/04/08 13:12:09;;;;;;;7.65;3.63;;;;;;;;;;10474579;28;20025;-81
2024/04/08 13:17:15;;;;;;;6.93;3.65;;;;;;;;;;10511376;22;20048;-83
2024/04/08 13:22:18;;;;;;;7.50;5.60;;;;;;;;;;10497014;28;20119;-83
2024/04/08 13:27:19;;;;;;;8.30;3.67;;;;;;;;;;10493843;28;20104;-83
2024/04/08 13:32:22;;;;;;;7.97;3.50;;;;;;;;;;10496073;28;20060;-81
2024/04/08 13:37:23;;;;;;;5.38;3.72;;;;;;;;;;10477423;28;20340;-83
2024/04/08 13:42:26;;;;;;;4.50;2.97;;;;;;;;;;10499562;28;20025;-84
2024/04/08 13:47:43;;;;;;;8.93;3.88;;;;;;;;;;10496356;28;20488;-85
2024/04/08 13:52:44;;;;;;;5.80;3.33;;;;;;;;;;10504108;28;20419;-84
2024/04/08 13:57:50;;;;;;;8.00;3.30;;;;;;;;;;10500642;28;20029;-82
2024/04/08 14:03:08;;;;;;;7.28;2.90;;;;;;;;;;10523434;28;20047;-83
2024/04/08 14:08:12;;;;;;;6.47;3.13;;;;;;;;;;10485840;28;20036;-85
2024/04/08 14:13:14;;;;;;;6.18;3.30;;;;;;;;;;10502077;28;20119;-84
2024/04/08 14:18:33;;;;;;;5.88;2.60;;;;;;;;;;10518834;28;20059;-83
2024/04/08 14:23:34;;;;;;;6.97;3.30;;;;;;;;;;10502540;28;20033;-81
2024/04/08 14:29:00;;;;;;;5.63;2.95;;;;;;;;;;10503147;28;20120;-83
2024/04/08 14:34:01;;;;;;;5.28;2.72;;;;;;;;;;10530677;28;20029;-82
2024/04/08 14:39:03;;;;;;;4.47;2.60;;;;;;;;;;10501910;28;20040;-81
2024/04/08 14:44:09;;;;;;;6.00;3.40;;;;;;;;;;10518167;28;20013;-82
2024/04/08 14:49:10;;;;;;;5.50;3.17;;;;;;;;;;10514649;28;20092;-82
2024/04/08 14:54:11;;;;;;;5.40;2.72;;;;;;;;;;10516844;28;20040;-85
2024/04/08 14:59:12;;;;;;;7.60;2.80;;;;;;;;;;10502227;28;20063;-82
2024/04/08 15:04:14;;;;;;;5.47;2.90;;;;;;;;;;10496126;28;20021;-83
2024/04/08 15:09:15;;;;;;;4.50;2.78;;;;;;;;;;10501405;28;20028;-84
2024/04/08 15:14:16;;;;;;;4.65;3.15;;;;;;;;;;10499432;28;20074;-81
2024/04/08 15:19:18;;;;;;;8.38;3.15;;;;;;;;;;10507986;28;20492;-84
2024/04/08 15:24:19;;;;;;;7.88;3.50;;;;;;;;;;10517364;28;20055;-84
2024/04/08 15:29:20;;;;;;;8.02;3.13;;;;;;;;;;10513595;28;20086;-80
2024/04/08 15:34:22;;;;;;;8.25;2.90;;;;;;;;;;10511879;28;20084;-80
2024/04/08 15:39:23;;;;;;;6.18;3.13;;;;;;;;;;10512045;28;20033;-80
2024/04/08 15:44:24;;;;;;;10.65;4.15;;;;;;;;;;10493032;28;20028;-80
2024/04/08 15:49:25;;;;;;;8.93;3.80;;;;;;;;;;10501425;28;20028;-84
2024/04/08 15:54:26;;;;;;;9.70;3.55;;;;;;;;;;10495555;28;20530;-80
2024/04/08 15:59:27;;;;;;;8.10;3.38;;;;;;;;;;10510081;28;20396;-80
2024/04/08 16:04:30;;;;;;;6.78;2.67;;;;;;;;;;10491988;28;20074;-80
2024/04/08 16:09:34;;;;;;;7.07;3.03;;;;;;;;;;10492916;28;20036;-79
2024/04/08 16:14:36;;;;;;;8.82;3.65;;;;;;;;;;10507904;28;20059;-79
2024/04/08 16:19:37;;;;;;;6.65;3.42;;;;;;;;;;10509854;28;20400;-80
2024/04/08 16:24:47;;;;;;;8.48;2.72;;;;;;;;;;10513891;28;20031;-84
2024/04/08 16:29:48;;;;;;;10.23;2.95;;;;;;;;;;10509664;28;20063;-85
2024/04/08 16:35:01;;;;;;;9.00;2.78;;;;;;;;;;10508750;28;20028;-87
2024/04/08 16:40:23;;;;;;;5.85;3.10;;;;;;;;;;10488580;28;20039;-86
2024/04/08 16:51:22;;;;;;;8.23;2.72;;;;;;;;;;10459374;28;20052;-85
2024/04/08 16:56:52;;;;;;;5.18;2.90;;;;;;;;;;10444630;28;20037;-87
2024/04/08 17:01:56;;;;;;;6.55;3.22;;;;;;;;;;10458886;28;20051;-87
2024/04/08 17:13:10;;;;;;;7.40;3.20;;;;;;;;;;10459362;28;20440;-87
2024/04/08 17:18:11;;;;;;;6.82;3.20;;;;;;;;;;10453582;28;20079;-86
2024/04/08 17:28:57;;;;;;;10.13;3.58;;;;;;;;;;10482240;28;20062;-86
2024/04/08 18:42:52;;;;;;;5.47;3.03;;;;;;;;;;10464445;28;20044;-85
2024/04/08 18:59:25;;;;;;;6.43;3.53;;;;;;;;;;10511645;28;20483;-85
